LJLJ/LJU METAR and TAF weather

Enter ICAO airport designator
Station Type Date Time Source
LJLJ METAR 2019/10/23 21:30 UTC NOAA

LJLJ 232130Z 29003KT 9999 MIFG NSC 09/08 Q1019 NOSIG


Station Type Date Time Source
LJLJ Decoded METAR 2019/10/23 21:30 UTC NOAA

Ljubljana / Brnik, Slovenia (LJLJ) 46-13N 014-29E 362M
Oct 23, 2019 - 05:30 PM EDT / 2019.10.23 2130 UTC
Wind: from the WNW (290 degrees) at 3 MPH (3 KT):0
Visibility: greater than 7 mile(s):0
Weather: shallow fog
Temperature: 48 F (9 C)
Dew Point: 46 F (8 C)
Relative Humidity: 93%
Pressure (altimeter): 30.09 in. Hg (1019 hPa)
ob: LJLJ 232130Z 29003KT 9999 MIFG NSC 09/08 Q1019 NOSIG
cycle: 21

Station Type Date Time Source
LJLJ TAF 2019/10/23 21:03 UTC NOAA

TAF TAF LJLJ 232000Z 2321/2421 30003KT CAVOK PROB40
TEMPO 2404/2408 0400 FG VV001
TEMPO 2410/2416 10005KT

Example: see airport list